METAR Data
IDs: Format: Raw Decoded Include TAF

Data at: 0530 UTC 24 Sep 2018

KOMH 240510Z AUTO 02004KT 5SM BR OVC004 15/15 A3024 RMK AO2
KOMH 240450Z AUTO 03005KT 5SM BR OVC004 15/15 A3024 RMK AO2
KOMH 240430Z AUTO 02005KT 5SM BR OVC004 15/15 A3025 RMK AO2
KOMH 240410Z AUTO 01005KT 4SM BR BKN004 OVC010 15/15 A3025 RMK AO2
KOMH 240350Z AUTO 36005KT 5SM BR OVC004 15/15 A3025 RMK AO2
KOMH 240330Z AUTO 36003KT 4SM BR OVC004 15/15 A3025 RMK AO2
KOMH 240310Z AUTO 36005KT 5SM BR OVC004 15/15 A3024 RMK AO2
KOMH 240250Z AUTO 36005KT 5SM BR OVC004 15/15 A3025 RMK AO2
KOMH 240230Z AUTO 01006KT 4SM BR OVC004 15/15 A3024 RMK AO2
KOMH 240210Z AUTO 36005KT 4SM BR OVC004 15/15 A3024 RMK AO2
KOMH 240150Z AUTO 34004KT 3SM BR OVC004 15/15 A3024 RMK AO2
KOMH 240130Z AUTO 36004KT 3SM BR OVC004 15/15 A3024 RMK AO2
KOMH 240110Z AUTO 35004KT 4SM BR OVC004 15/15 A3023 RMK AO2
KOMH 240050Z AUTO 01005KT 4SM BR OVC004 15/15 A3023 RMK AO2
KOMH 240030Z AUTO 36005KT 5SM BR OVC004 15/15 A3022 RMK AO2
KOMH 240010Z AUTO 36005KT 10SM OVC004 15/15 A3021 RMK AO2
KOMH 232350Z AUTO 35005KT 10SM OVC004 15/15 A3021 RMK AO2
KOMH 232330Z AUTO 36006KT 10SM OVC006 15/15 A3020 RMK AO2
KOMH 232310Z AUTO 01004KT 10SM OVC006 15/15 A3020 RMK AO2
KOMH 232250Z AUTO 01005KT 7SM OVC006 15/15 A3020 RMK AO2
KOMH 232230Z AUTO 01005KT 7SM OVC006 15/15 A3020 RMK AO2
KOMH 232210Z AUTO 35005KT 4SM BR OVC006 15/15 A3020 RMK AO2
KOMH 232150Z AUTO 36008KT 4SM BR OVC006 15/15 A3020 RMK AO2
KOMH 232130Z AUTO 34005KT 5SM BR OVC004 16/15 A3019 RMK AO2
KOMH 232110Z AUTO 01004KT 3SM BR OVC004 16/15 A3019 RMK AO2
KOMH 232050Z AUTO 01005KT 4SM BR OVC004 16/15 A3018 RMK AO2
KOMH 232030Z AUTO 01004KT 2 1/2SM BR OVC004 16/15 A3018 RMK AO2
KOMH 232010Z AUTO 36004KT 3SM BR OVC006 16/15 A3018 RMK AO2
KOMH 231950Z AUTO 01006KT 5SM BR OVC006 16/15 A3018 RMK AO2 P0001
KOMH 231930Z AUTO 01005KT 5SM BR BKN006 OVC009 16/15 A3018 RMK AO2 P0001
KOMH 231910Z AUTO 36005KT 5SM BR BKN006 OVC009 16/15 A3018 RMK AO2
KOMH 231850Z AUTO 35004KT 4SM DZ OVC006 16/15 A3019 RMK AO2 P0001
KOMH 231830Z AUTO 01006KT 3SM DZ OVC006 16/15 A3019 RMK AO2 P0001
KOMH 231810Z AUTO 01005KT 3SM DZ OVC004 16/15 A3019 RMK AO2
KOMH 231750Z AUTO 01003KT 3SM DZ OVC004 15/15 A3020 RMK AO2 P0001
KOMH 231730Z AUTO 35006KT 2 1/2SM DZ OVC004 15/15 A3020 RMK AO2
KOMH 231710Z AUTO 36004KT 4SM -DZ OVC004 15/15 A3020 RMK AO2
KOMH 231650Z AUTO 34005KT 3SM BR OVC006 15/15 A3020 RMK AO2
KOMH 231630Z AUTO 36004KT 3SM BR OVC006 15/15 A3020 RMK AO2
KOMH 231610Z AUTO 36006KT 5SM BR OVC006 15/15 A3021 RMK AO2
KOMH 231550Z AUTO 35005KT 5SM -DZ OVC004 15/14 A3021 RMK AO2 P0001
KOMH 231530Z AUTO 36005KT 4SM -RA OVC004 15/14 A3021 RMK AO2 P0001
KOMH 231510Z AUTO 02006KT 3SM -DZ OVC004 15/14 A3020 RMK AO2
KOMH 231450Z AUTO 02005KT 3SM DZ OVC004 14/13 A3021 RMK AO2
KOMH 231430Z AUTO 01007KT 350V050 5SM -DZ OVC004 14/13 A3021 RMK AO2
KOMH 231410Z AUTO 01005KT 5SM -DZ OVC004 13/13 A3021 RMK AO2
KOMH 231350Z AUTO 01005KT 5SM DZ OVC004 13/13 A3021 RMK AO2 P0004
KOMH 231330Z AUTO 36004KT 3SM +RA OVC004 13/13 A3021 RMK AO2 P0003
KOMH 231310Z AUTO 36006KT 4SM +RA BKN006 OVC012 13/13 A3020 RMK AO2 P0001
KOMH 231250Z AUTO 34008KT 4SM RA OVC006 13/13 A3020 RMK AO2 P0006
KOMH 231230Z AUTO 34007KT 4SM RA OVC006 13/12 A3019 RMK AO2 P0003
KOMH 231210Z AUTO 35007KT 10SM -DZ OVC008 13/12 A3018 RMK AO2
KOMH 231150Z AUTO 01008G14KT 10SM OVC008 13/12 A3018 RMK AO2 P0001
KOMH 231130Z AUTO 01008KT 7SM +DZ BKN006 BKN012 OVC029 13/12 A3018 RMK AO2 P0001
KOMH 231110Z AUTO 01008KT 10SM -RA SCT006 BKN019 OVC029 13/13 A3017 RMK AO2
KOMH 231050Z AUTO 36005KT 10SM DZ BKN006 BKN020 OVC027 13/13 A3018 RMK AO2 P0005
KOMH 231030Z AUTO 34004KT 7SM -RA BKN006 BKN010 OVC020 13/13 A3018 RMK AO2 P0004
KOMH 231010Z AUTO 36006KT 10SM RA OVC008 13/13 A3018 RMK AO2 P0001
KOMH 230950Z AUTO 36006KT 7SM +RA BKN007 BKN012 OVC020 13/13 A3018 RMK AO2 P0014
KOMH 230930Z AUTO 36005KT 7SM +RA SCT011 OVC018 13/13 A3018 RMK AO2 P0007
KOMH 230910Z AUTO 01007KT 10SM RA OVC018 13/13 A3016 RMK AO2
KOMH 230850Z AUTO 02007KT 10SM DZ SCT008 OVC018 13/13 A3016 RMK AO2
KOMH 230830Z AUTO 02008KT 10SM -RA BKN008 BKN013 OVC018 13/13 A3016 RMK AO2
KOMH 230810Z AUTO 01008KT 10SM -DZ OVC006 13/13 A3017 RMK AO2
KOMH 230750Z AUTO 01009KT 10SM DZ OVC006 13/13 A3017 RMK AO2 P0002
KOMH 230730Z AUTO 02007KT 10SM -RA OVC006 13/13 A3017 RMK AO2 P0002
KOMH 230710Z AUTO 35004KT 10SM -RA BKN006 OVC023 13/13 A3017 RMK AO2 P0001
KOMH 230650Z AUTO 36006KT 10SM -RA BKN006 OVC025 14/13 A3018 RMK AO2 P0006
KOMH 230630Z AUTO 01006KT 10SM -RA SCT008 SCT012 OVC025 14/13 A3018 RMK AO2 P0005
KOMH 230610Z AUTO 01006KT 7SM +RA SCT006 SCT012 OVC029 14/13 A3019 RMK AO2 P0003
KOMH 230550Z AUTO 01006KT 10SM -RA SCT006 OVC033 14/13 A3019 RMK AO2 P0005
KOMH 230530Z AUTO 01006KT 10SM RA OVC035 14/13 A3019 RMK AO2 P0003
KOMH 230510Z AUTO 36007KT 10SM RA SCT028 OVC037 15/13 A3019 RMK AO2 P0002
KOMH 230450Z AUTO 36004KT 10SM +RA BKN028 OVC037 15/14 A3021 RMK AO2 P0002
KOMH 230430Z AUTO 35003KT 10SM -RA OVC028 14/13 A3021 RMK AO2
KOMH 230410Z AUTO 03005KT 10SM DZ OVC030 14/13 A3021 RMK AO2
KOMH 230350Z AUTO 04005KT 10SM RA BKN030 OVC038 14/13 A3021 RMK AO2 P0008
KOMH 230330Z AUTO 04005KT 7SM RA SCT030 BKN038 OVC050 15/14 A3021 RMK AO2 P0006
KOMH 230310Z AUTO 04003KT 7SM RA SCT032 BKN047 OVC050 16/15 A3021 RMK AO2 P0002
KOMH 230250Z AUTO 01005KT 10SM RA BKN034 OVC040 16/15 A3020 RMK AO2 P0002
KOMH 230230Z AUTO 03004KT 10SM RA BKN042 OVC070 17/15 A3019 RMK AO2
KOMH 230210Z AUTO 03005KT 10SM RA SCT037 BKN046 OVC070 16/15 A3020 RMK AO2
KOMH 230150Z AUTO 03004KT 10SM -RA OVC037 17/15 A3019 RMK AO2
KOMH 230130Z AUTO 00000KT 10SM BKN037 OVC045 17/16 A3020 RMK AO2
KOMH 230110Z AUTO 00000KT 10SM DZ BKN037 OVC045 17/16 A3019 RMK AO2
KOMH 230050Z AUTO 00000KT 10SM DZ OVC037 17/16 A3019 RMK AO2 P0002
KOMH 230030Z AUTO 00000KT 10SM -RA SCT035 BKN047 OVC070 17/16 A3018 RMK AO2 P0002
KOMH 230010Z AUTO 00000KT 10SM RA BKN035 BKN049 OVC070 17/16 A3017 RMK AO2 P0001
KOMH 222350Z AUTO 00000KT 10SM -RA BKN035 OVC045 17/15 A3017 RMK AO2
KOMH 222330Z AUTO 00000KT 10SM SCT035 OVC045 17/16 A3017 RMK AO2
KOMH 222310Z AUTO 00000KT 10SM SCT033 BKN047 OVC060 17/16 A3016 RMK AO2
KOMH 222250Z AUTO 00000KT 10SM SCT033 BKN065 OVC090 17/16 A3016 RMK AO2 P0009
KOMH 222230Z AUTO 00000KT 7SM -RA SCT055 SCT075 OVC090 17/16 A3016 RMK AO2 P0009
KOMH 222210Z AUTO 04003KT 2 1/2SM +RA BKN033 OVC050 17/16 A3016 RMK AO2 P0006
KOMH 222150Z AUTO 04003KT 7SM RA SCT016 BKN035 OVC050 17/15 A3016 RMK AO2 P0003
KOMH 222130Z AUTO 36006KT 7SM RA OVC060 17/15 A3015 RMK AO2 P0002
KOMH 222110Z AUTO 34006KT 10SM RA OVC060 20/15 A3015 RMK AO2
KOMH 222050Z AUTO 36006KT 10SM OVC060 20/15 A3014 RMK AO2
KOMH 222030Z AUTO 36005KT 10SM OVC060 21/15 A3013 RMK AO2
KOMH 222010Z AUTO 36007KT 10SM SCT043 BKN060 OVC070 21/15 A3013 RMK AO2
KOMH 221950Z AUTO 03005KT 10SM BKN043 BKN070 OVC080 22/15 A3013 RMK AO2
KOMH 221930Z AUTO 36005KT 10SM SCT070 OVC080 23/16 A3013 RMK AO2
KOMH 221910Z AUTO 03007KT 10SM SCT060 BKN080 OVC090 23/16 A3013 RMK AO2
KOMH 221855Z AUTO 03006KT 10SM SCT065 OVC070 23/15 A3014 RMK AO2
KOMH 221830Z AUTO 01008KT 350V060 10SM OVC065 23/15 A3014 RMK AO2
KOMH 221810Z AUTO 06005KT 10SM OVC065 23/16 A3014 RMK AO2
KOMH 221750Z AUTO 04007KT 10SM SCT048 OVC065 23/16 A3014 RMK AO2